Terminal Aerodrome Forecast
Issued by NWS

Home | Current Version | Previous Version | Text Only | Print | Product List | Glossary On
Versions: 1 2 3 4 5 6 7 8 9 10 11 12 13 14 15 16 17 18 19 20 21 22 23 24 25 26 27 28
994
FTUS46 KSGX 141437 AAB
TAFSAN
TAF AMD
KSAN 141437Z 1415/1518 VRB04KT 5SM BR VCFG SCT002
     FM141530 VRB04KT 6SM HZ SCT005
     FM141700 VRB04KT P6SM SKC
     FM142000 31009KT P6SM SKC
     FM150000 VRB04KT P6SM SKC=

USA.gov is the U.S. government's official web portal to all federal, state and local government web resources and services.